Time;durP1;ratioP1;P1;durP2;ratioP2;P2;SDS_P1;SDS_P2;PMS_P1;PMS_P2;Temp;Humidity;BMP_temperature;BMP_pressure;BME280_temperature;BME280_humidity;BME280_pressure;Samples;Min_cycle;Max_cycle;Signal;HPM_P1;HPM_P2
2021/12/03 00:01:38;;;;;;;40.80;19.73;;;-0.60;99.90;;;;;;4943696;29;20043;-95
2021/12/03 00:04:22;;;;;;;38.83;18.00;;;-0.90;99.90;;;;;;4946111;28;20127;-94
2021/12/03 00:06:48;;;;;;;48.25;24.58;;;-0.60;99.90;;;;;;4957637;28;20325;-94
2021/12/03 00:09:34;;;;;;;23.70;16.40;;;-0.70;99.90;;;;;;4944086;29;20063;-94
2021/12/03 00:12:13;;;;;;;19.27;10.03;;;-0.60;99.90;;;;;;4943528;29;20058;-94
2021/12/03 00:14:38;;;;;;;17.40;8.80;;;-1.00;99.90;;;;;;4959965;28;20096;-93
2021/12/03 00:17:23;;;;;;;18.97;9.43;;;-1.10;99.90;;;;;;4942453;29;20425;-93
2021/12/03 00:19:48;;;;;;;18.73;9.23;;;-1.10;99.90;;;;;;4938754;29;20040;-94
2021/12/03 00:22:30;;;;;;;17.53;9.07;;;0.20;99.90;;;;;;4938015;29;20055;-94
2021/12/03 00:24:55;;;;;;;17.07;8.83;;;0.50;99.90;;;;;;4938561;29;20048;-94
2021/12/03 00:27:40;;;;;;;15.37;8.77;;;-1.00;99.90;;;;;;4937826;29;20044;-94
2021/12/03 00:30:18;;;;;;;17.50;7.67;;;-1.10;99.90;;;;;;4937565;29;20051;-94
2021/12/03 00:32:45;;;;;;;15.40;8.57;;;0.90;99.90;;;;;;4938435;29;20048;-94
2021/12/03 00:35:23;;;;;;;15.00;7.53;;;-1.20;99.90;;;;;;4939049;29;20044;-95
2021/12/03 00:37:58;;;;;;;15.83;7.90;;;-1.00;99.90;;;;;;4940962;29;20055;-94
2021/12/03 00:40:28;;;;;;;16.47;8.00;;;0.70;99.90;;;;;;4943599;29;20051;-94
2021/12/03 00:42:54;;;;;;;19.20;8.73;;;-1.00;99.90;;;;;;4942743;29;20043;-94
2021/12/03 00:45:21;;;;;;;16.60;7.87;;;0.20;99.90;;;;;;4942552;29;20050;-94
2021/12/03 00:50:35;;;;;;;17.13;8.30;;;0.50;99.90;;;;;;4931450;29;20064;-94
2021/12/03 00:53:26;;;;;;;16.90;7.53;;;-1.20;99.90;;;;;;4949314;29;20089;-94
2021/12/03 00:56:09;;;;;;;17.37;8.17;;;0.20;99.90;;;;;;4962746;28;20027;-94
2021/12/03 00:58:41;;;;;;;19.57;8.30;;;-0.40;99.90;;;;;;4962634;28;20032;-94
2021/12/03 01:01:08;;;;;;;16.67;8.00;;;-1.00;99.90;;;;;;4962972;28;20031;-94
2021/12/03 01:03:49;;;;;;;19.50;8.03;;;-1.00;99.90;;;;;;4945854;29;20057;-93
2021/12/03 01:06:18;;;;;;;16.57;7.60;;;-0.60;99.90;;;;;;4946494;29;20547;-94
2021/12/03 01:08:55;;;;;;;16.13;7.87;;;-1.30;99.90;;;;;;4947403;29;20047;-94
2021/12/03 01:11:21;;;;;;;15.87;8.07;;;-0.30;99.90;;;;;;4945899;29;20043;-94
2021/12/03 01:13:48;;;;;;;16.13;8.57;;;-0.70;99.90;;;;;;4930611;23;20084;-95
2021/12/03 01:16:29;;;;;;;16.47;7.70;;;-0.50;99.90;;;;;;4902997;29;20044;-94
2021/12/03 01:18:55;;;;;;;17.43;8.13;;;-0.90;99.90;;;;;;4887078;29;20132;-94
2021/12/03 01:21:25;;;;;;;15.83;7.70;;;-1.00;99.90;;;;;;4902758;29;20048;-94
2021/12/03 01:23:57;;;;;;;17.70;7.90;;;-1.10;99.90;;;;;;4903945;29;20044;-94
2021/12/03 01:26:43;;;;;;;15.73;8.50;;;-1.00;99.90;;;;;;4901627;29;20124;-94
2021/12/03 01:29:09;;;;;;;18.33;8.77;;;-0.70;99.90;;;;;;4901841;29;20040;-94
2021/12/03 01:31:41;;;;;;;17.17;8.43;;;-0.80;99.90;;;;;;4900757;29;20048;-94
2021/12/03 01:34:22;;;;;;;18.17;9.17;;;-0.70;99.90;;;;;;4901545;29;20040;-94
2021/12/03 01:36:48;;;;;;;20.83;10.00;;;-0.60;99.90;;;;;;4901241;29;20075;-93
2021/12/03 01:39:14;;;;;;;19.57;10.10;;;-0.90;99.90;;;;;;4904254;29;20055;-94
2021/12/03 01:41:59;;;;;;;19.83;9.97;;;-0.80;99.90;;;;;;4902089;29;20055;-94
2021/12/03 01:44:25;;;;;;;20.50;10.73;;;-0.70;99.90;;;;;;4902084;29;20045;-94
2021/12/03 01:46:50;;;;;;;21.17;11.20;;;-0.70;99.90;;;;;;4900788;29;20047;-94
2021/12/03 01:49:19;;;;;;;22.20;11.33;;;-0.80;99.90;;;;;;4916770;29;20048;-94
2021/12/03 01:51:45;;;;;;;25.40;12.30;;;0.30;99.90;;;;;;4900413;29;20049;-93
2021/12/03 01:54:24;;;;;;;25.77;12.40;;;-0.70;99.90;;;;;;4916490;29;20139;-93
2021/12/03 01:56:49;;;;;;;25.23;13.43;;;-0.70;99.90;;;;;;4904750;29;20039;-93
2021/12/03 01:59:32;;;;;;;23.43;12.63;;;-0.80;99.90;;;;;;4923168;29;20024;-93
2021/12/03 02:02:13;;;;;;;27.80;14.97;;;-0.70;99.90;;;;;;4919594;29;20110;-94
2021/12/03 02:04:42;;;;;;;29.00;14.97;;;1.00;99.90;;;;;;4901070;29;20048;-93
2021/12/03 02:07:10;;;;;;;30.17;15.50;;;-0.80;99.90;;;;;;4929657;29;20045;-94
2021/12/03 02:09:49;;;;;;;29.83;16.70;;;-0.40;99.90;;;;;;4910491;29;20048;-94
2021/12/03 02:12:39;;;;;;;28.70;16.37;;;-0.90;99.90;;;;;;4907694;29;20131;-93
2021/12/03 02:15:23;;;;;;;28.67;15.67;;;-1.00;99.90;;;;;;4902262;29;20056;-92
2021/12/03 02:17:49;;;;;;;35.60;17.70;;;-0.70;99.90;;;;;;4902595;29;20048;-93
2021/12/03 02:20:31;;;;;;;29.47;15.40;;;-0.70;99.90;;;;;;4903474;29;20167;-94
2021/12/03 02:22:57;;;;;;;31.67;16.10;;;1.20;99.90;;;;;;4902765;29;20048;-93
2021/12/03 02:25:31;;;;;;;27.63;15.83;;;-0.70;99.90;;;;;;4903371;29;20136;-93
2021/12/03 02:27:57;;;;;;;30.70;16.77;;;0.30;99.90;;;;;;4903382;29;20505;-93
2021/12/03 02:30:24;;;;;;;27.33;15.53;;;-0.60;99.90;;;;;;4903187;29;20051;-92
2021/12/03 02:32:58;;;;;;;29.23;16.43;;;-0.60;99.90;;;;;;4902485;29;20048;-92
2021/12/03 02:35:25;;;;;;;34.33;19.03;;;-0.70;99.90;;;;;;4902218;29;20400;-93
2021/12/03 02:37:52;;;;;;;30.97;16.40;;;-0.60;99.90;;;;;;4903257;29;20090;-93
2021/12/03 02:40:35;;;;;;;31.37;16.77;;;0.00;99.90;;;;;;4902734;29;20052;-93
2021/12/03 02:43:01;;;;;;;31.03;17.83;;;-0.60;99.90;;;;;;4902193;29;20047;-93
2021/12/03 02:45:26;;;;;;;32.57;17.73;;;-0.70;99.90;;;;;;4902876;29;20084;-94
2021/12/03 02:50:33;;;;;;;31.33;17.83;;;-0.40;99.90;;;;;;4987863;23;20045;-93
2021/12/03 02:53:08;;;;;;;30.10;18.27;;;0.60;99.90;;;;;;4960618;28;20121;-93
2021/12/03 02:55:37;;;;;;;28.67;16.90;;;-0.70;99.90;;;;;;4960180;28;20046;-93
2021/12/03 02:58:03;;;;;;;31.90;19.47;;;-1.40;99.90;;;;;;4958278;28;20129;-93
2021/12/03 03:00:44;;;;;;;32.57;18.80;;;-0.70;99.90;;;;;;4957124;28;20051;-93
2021/12/03 03:03:10;;;;;;;28.77;18.73;;;-0.70;99.90;;;;;;4955074;29;20151;-92
2021/12/03 03:05:57;;;;;;;29.77;17.60;;;0.50;99.90;;;;;;4937184;29;20051;-93
2021/12/03 03:08:43;;;;;;;30.00;18.80;;;-0.60;99.90;;;;;;4939959;29;20480;-92
2021/12/03 03:11:24;;;;;;;32.70;19.23;;;-0.60;99.90;;;;;;4956692;29;20106;-93
2021/12/03 03:13:50;;;;;;;31.53;19.07;;;-0.70;99.90;;;;;;4939515;29;20499;-93
2021/12/03 03:16:17;;;;;;;30.43;19.53;;;-0.60;99.90;;;;;;4941139;29;20043;-93
2021/12/03 03:18:49;;;;;;;31.90;19.80;;;-0.80;99.90;;;;;;4939011;29;20051;-93
2021/12/03 03:21:33;;;;;;;30.47;19.27;;;-0.60;99.90;;;;;;4927304;23;20563;-93
2021/12/03 03:23:59;;;;;;;29.00;18.80;;;-0.70;99.90;;;;;;4902460;29;20051;-93
2021/12/03 03:26:24;;;;;;;29.87;18.97;;;-0.60;99.90;;;;;;4900691;29;20497;-93
2021/12/03 03:28:59;;;;;;;27.57;18.97;;;-0.70;99.90;;;;;;4901373;29;20044;-93
2021/12/03 03:31:25;;;;;;;29.53;19.50;;;-0.70;99.90;;;;;;4901313;29;20044;-92
2021/12/03 03:34:03;;;;;;;34.70;21.50;;;0.60;99.90;;;;;;4900962;29;20040;-93
2021/12/03 03:36:56;;;;;;;28.00;18.43;;;-1.00;99.90;;;;;;4902037;29;20048;-93
2021/12/03 03:39:22;;;;;;;29.23;18.70;;;-0.40;99.90;;;;;;4901082;29;20083;-93
2021/12/03 03:41:50;;;;;;;30.83;19.17;;;-0.60;99.90;;;;;;4900843;29;20043;-94
2021/12/03 03:44:29;;;;;;;27.30;18.97;;;0.60;99.90;;;;;;4902242;29;20225;-93
2021/12/03 03:47:07;;;;;;;28.47;19.43;;;-0.70;99.90;;;;;;4901314;29;20048;-93
2021/12/03 03:49:45;;;;;;;30.40;20.50;;;0.50;99.90;;;;;;4903708;29;20044;-93
2021/12/03 03:52:10;;;;;;;30.70;19.33;;;-0.70;99.90;;;;;;4925369;29;20028;-92
2021/12/03 03:54:51;;;;;;;28.63;18.53;;;-0.20;99.90;;;;;;4922617;29;20084;-92
2021/12/03 03:57:17;;;;;;;30.93;19.70;;;0.40;99.90;;;;;;4925343;29;20028;-93
2021/12/03 04:03:18;;;;;;;31.80;19.95;;;-0.20;99.90;;;;;;4912385;29;20129;-92
2021/12/03 04:05:44;;;;;;;31.13;18.83;;;;;;;;;;4900424;29;20048;-92
2021/12/03 04:08:29;;;;;;;30.63;19.27;;;-0.40;99.90;;;;;;4914865;29;20048;-93
2021/12/03 04:10:56;;;;;;;32.00;19.83;;;-0.60;99.90;;;;;;4901341;29;20104;-93
2021/12/03 04:13:28;;;;;;;28.40;18.70;;;1.20;99.90;;;;;;4898895;29;20044;-93
2021/12/03 04:16:12;;;;;;;33.87;20.50;;;-0.90;99.90;;;;;;4901038;29;20124;-92
2021/12/03 04:18:50;;;;;;;29.05;20.95;;;0.50;99.90;;;;;;4901921;29;20059;-93
2021/12/03 04:21:41;;;;;;;30.27;19.60;;;0.20;99.90;;;;;;4901501;29;20408;-93
2021/12/03 04:24:07;;;;;;;32.37;20.00;;;-0.60;99.90;;;;;;4901354;29;20405;-93
2021/12/03 04:26:33;;;;;;;32.67;20.47;;;0.10;99.90;;;;;;4901635;29;20130;-93
2021/12/03 04:29:00;;;;;;;29.47;19.53;;;0.10;99.90;;;;;;4900556;29;20048;-93
2021/12/03 04:31:42;;;;;;;29.70;20.53;;;-0.70;99.90;;;;;;4901260;29;20060;-93
2021/12/03 04:34:07;;;;;;;31.10;20.63;;;-0.30;99.90;;;;;;4901133;29;20094;-93
2021/12/03 04:36:53;;;;;;;30.73;20.77;;;0.80;99.90;;;;;;4900628;29;20465;-93
2021/12/03 04:39:19;;;;;;;31.67;21.17;;;-0.70;99.90;;;;;;4903152;29;20090;-92
2021/12/03 04:41:51;;;;;;;34.53;21.50;;;-0.60;99.90;;;;;;4904774;29;20413;-92
2021/12/03 04:44:16;;;;;;;31.97;21.27;;;-0.50;99.90;;;;;;4904371;29;20081;-93
2021/12/03 04:47:02;;;;;;;32.10;20.90;;;-0.60;99.90;;;;;;4904549;29;20056;-92
2021/12/03 04:49:28;;;;;;;33.77;20.50;;;-0.50;99.90;;;;;;4905702;29;20052;-92
2021/12/03 04:52:09;;;;;;;33.60;22.20;;;-0.60;99.90;;;;;;4904010;29;20147;-93
2021/12/03 04:54:35;;;;;;;32.13;20.63;;;-0.50;99.90;;;;;;4905067;29;20052;-94
2021/12/03 04:57:16;;;;;;;34.73;20.70;;;-0.50;99.90;;;;;;4904087;29;20055;-93
2021/12/03 04:59:53;;;;;;;35.13;22.07;;;-0.60;99.90;;;;;;4974174;23;20051;-92
2021/12/03 05:02:21;;;;;;;32.10;21.87;;;-0.90;99.90;;;;;;4933308;29;20138;-93
2021/12/03 05:04:59;;;;;;;31.13;20.83;;;-0.50;99.90;;;;;;4939204;29;20118;-93
2021/12/03 05:07:53;;;;;;;34.07;21.30;;;1.20;99.90;;;;;;4942389;29;20050;-93
2021/12/03 05:10:19;;;;;;;32.78;20.42;;;-1.00;99.90;;;;;;4941342;29;20496;-93
2021/12/03 05:13:05;;;;;;;35.20;20.67;;;-0.50;99.90;;;;;;4942687;29;20047;-93
2021/12/03 05:15:41;;;;;;;;;;;;;;;;;;;;;
2021/12/03 05:18:21;;;;;;;34.90;21.33;;;-0.20;99.90;;;;;;4941298;29;20043;-93
2021/12/03 05:20:48;;;;;;;34.57;21.00;;;-0.30;99.90;;;;;;4942751;29;20051;-92
2021/12/03 05:23:28;;;;;;;38.13;22.23;;;0.20;99.90;;;;;;4943707;29;20039;-93
2021/12/03 05:25:54;;;;;;;39.27;22.03;;;0.00;99.90;;;;;;4941707;29;20035;-93
2021/12/03 05:28:40;;;;;;;33.30;21.97;;;-0.30;99.90;;;;;;4941848;29;20049;-92
2021/12/03 05:31:07;;;;;;;35.80;23.47;;;-0.40;99.90;;;;;;4941186;29;20142;-92
2021/12/03 05:33:33;;;;;;;36.10;21.83;;;-0.40;99.90;;;;;;4941696;29;20496;-92
2021/12/03 05:36:17;;;;;;;36.67;22.17;;;-0.30;99.90;;;;;;4941084;29;20047;-93
2021/12/03 05:38:43;;;;;;;;;;;-0.40;99.90;;;;;;4940658;29;20059;-93
2021/12/03 05:41:08;;;;;;;34.03;20.80;;;-0.30;99.90;;;;;;4941857;29;20319;-93
2021/12/03 05:43:53;;;;;;;33.70;21.53;;;-0.30;99.90;;;;;;4949450;28;20031;-92
2021/12/03 05:46:19;;;;;;;37.33;22.87;;;0.70;99.90;;;;;;4962097;29;20027;-93
2021/12/03 05:48:45;;;;;;;37.57;22.17;;;-0.40;99.90;;;;;;4942745;29;20045;-93
2021/12/03 05:53:57;;;;;;;37.83;21.17;;;-0.10;99.90;;;;;;4973535;28;20042;-93
2021/12/03 05:56:41;;;;;;;42.07;22.07;;;-0.30;99.90;;;;;;4953086;29;20043;-93
2021/12/03 05:59:06;;;;;;;35.90;21.42;;;0.20;99.90;;;;;;4942275;29;20067;-93
2021/12/03 06:01:32;;;;;;;33.30;21.57;;;-0.30;99.90;;;;;;4942989;29;20054;-93
2021/12/03 06:03:59;;;;;;;34.43;21.33;;;-0.20;99.90;;;;;;4940528;29;20139;-92
2021/12/03 06:06:24;;;;;;;38.77;22.40;;;-0.10;99.90;;;;;;4941202;29;20133;-93
2021/12/03 06:09:05;;;;;;;38.13;22.77;;;-0.20;99.90;;;;;;4941310;29;20055;-93
2021/12/03 06:11:34;;;;;;;36.78;23.17;;;0.00;99.90;;;;;;4941585;29;20054;-93
2021/12/03 06:14:00;;;;;;;41.53;23.23;;;0.90;99.90;;;;;;4943622;23;20419;-93
2021/12/03 06:16:41;;;;;;;42.70;24.13;;;0.50;99.90;;;;;;4922348;29;20070;-93
2021/12/03 06:19:07;;;;;;;38.03;21.83;;;-0.30;99.90;;;;;;4922156;29;20044;-93
2021/12/03 06:21:33;;;;;;;39.83;22.70;;;1.50;99.90;;;;;;4921682;29;20382;-92
2021/12/03 06:23:58;;;;;;;39.13;23.00;;;-0.20;99.90;;;;;;4921239;29;20382;-93
2021/12/03 06:26:24;;;;;;;39.20;23.83;;;-0.40;99.90;;;;;;4923388;29;20040;-93
2021/12/03 06:28:50;;;;;;;41.50;23.73;;;-0.30;99.90;;;;;;4923144;29;20044;-92
2021/12/03 06:31:15;;;;;;;37.17;21.53;;;-0.60;99.90;;;;;;4922159;29;20452;-93
2021/12/03 06:33:41;;;;;;;44.33;25.53;;;-0.40;99.90;;;;;;4921876;29;20044;-92
2021/12/03 06:36:07;;;;;;;45.20;25.10;;;-0.40;99.90;;;;;;4921636;29;20047;-93
2021/12/03 06:38:33;;;;;;;41.40;23.57;;;-0.20;99.90;;;;;;4921445;29;20124;-92
2021/12/03 06:40:59;;;;;;;42.40;23.87;;;0.30;99.90;;;;;;4921492;29;20048;-93
2021/12/03 06:43:26;;;;;;;41.47;23.43;;;-0.50;99.90;;;;;;4921562;29;20040;-93
2021/12/03 06:45:51;;;;;;;45.80;24.43;;;-0.40;99.90;;;;;;4921939;29;20370;-93
2021/12/03 06:48:23;;;;;;;43.93;23.60;;;-0.10;99.90;;;;;;4921077;29;20107;-92
2021/12/03 06:50:50;;;;;;;44.20;23.30;;;0.90;99.90;;;;;;4921567;29;20044;-92
2021/12/03 06:53:31;;;;;;;45.63;24.80;;;-0.30;99.90;;;;;;4923444;29;20064;-93
2021/12/03 06:56:05;;;;;;;48.47;24.83;;;-0.20;99.90;;;;;;4940374;28;20043;-93
2021/12/03 06:58:31;;;;;;;44.00;24.13;;;-0.10;99.90;;;;;;4945417;28;20063;-91
2021/12/03 07:00:57;;;;;;;47.40;23.70;;;-0.20;99.90;;;;;;4945198;29;20046;-92
2021/12/03 07:03:23;;;;;;;42.93;23.67;;;0.00;99.90;;;;;;4930508;29;20043;-93
2021/12/03 07:05:49;;;;;;;45.50;24.43;;;0.00;99.90;;;;;;4921683;29;20047;-92
2021/12/03 07:08:14;;;;;;;47.40;24.43;;;0.00;99.90;;;;;;4921386;29;20044;-93
2021/12/03 07:10:41;;;;;;;48.53;25.50;;;0.10;99.90;;;;;;4920946;29;20087;-94
2021/12/03 07:13:07;;;;;;;42.50;22.80;;;0.20;99.90;;;;;;4920689;29;20056;-94
2021/12/03 07:15:33;;;;;;;45.43;24.93;;;0.10;99.90;;;;;;4922436;29;20079;-93
2021/12/03 07:17:59;;;;;;;45.97;23.83;;;0.20;99.90;;;;;;4921165;29;20044;-93
2021/12/03 07:20:26;;;;;;;43.57;22.90;;;0.20;99.90;;;;;;4921043;29;20058;-93
2021/12/03 07:22:52;;;;;;;45.23;23.73;;;0.50;99.90;;;;;;4922490;29;20050;-93
2021/12/03 07:25:19;;;;;;;48.73;25.70;;;0.30;99.90;;;;;;4943555;23;20059;-88
2021/12/03 07:27:44;;;;;;;48.63;24.60;;;0.40;99.90;;;;;;4938716;29;20059;-86
2021/12/03 07:30:15;;;;;;;46.30;25.63;;;0.80;99.90;;;;;;4938959;29;20051;-88
2021/12/03 07:32:42;;;;;;;50.00;25.33;;;0.50;99.90;;;;;;4938133;29;20090;-87
2021/12/03 07:35:23;;;;;;;49.90;28.03;;;0.40;99.90;;;;;;4937938;29;20141;-88
2021/12/03 07:37:51;;;;;;;49.67;26.27;;;0.10;99.90;;;;;;4945682;29;20046;-87
2021/12/03 07:40:29;;;;;;;55.10;31.27;;;0.30;99.90;;;;;;4944876;29;20102;-86
2021/12/03 07:42:57;;;;;;;46.60;25.40;;;0.80;99.90;;;;;;4938035;29;20046;-91
2021/12/03 07:45:23;;;;;;;52.90;26.90;;;-0.40;99.90;;;;;;4937693;29;20066;-86
2021/12/03 07:47:49;;;;;;;47.97;26.00;;;0.40;99.90;;;;;;4946835;29;20043;-87
2021/12/03 07:50:15;;;;;;;46.10;23.93;;;0.40;99.90;;;;;;4945477;29;20510;-89
2021/12/03 07:52:41;;;;;;;46.60;25.37;;;0.40;99.90;;;;;;4931762;29;20411;-88
2021/12/03 07:55:19;;;;;;;53.87;27.07;;;0.70;99.90;;;;;;4927599;29;20050;-87
2021/12/03 07:57:44;;;;;;;51.20;25.40;;;0.60;99.90;;;;;;4932514;29;20070;-86
2021/12/03 08:00:11;;;;;;;53.57;27.30;;;1.30;99.90;;;;;;4937196;29;20550;-87
2021/12/03 08:02:52;;;;;;;52.07;26.43;;;0.80;99.90;;;;;;4955220;29;20106;-87
2021/12/03 08:05:18;;;;;;;54.17;26.70;;;0.90;99.90;;;;;;4937643;29;20051;-85
2021/12/03 08:07:46;;;;;;;53.80;26.73;;;0.60;99.90;;;;;;4953957;29;20126;-87
2021/12/03 08:10:14;;;;;;;50.23;25.30;;;0.70;99.90;;;;;;4937558;29;20047;-88
2021/12/03 08:12:41;;;;;;;55.13;27.30;;;0.90;99.90;;;;;;4936973;29;20514;-87
2021/12/03 08:15:08;;;;;;;48.67;25.93;;;0.60;99.90;;;;;;4937516;29;20789;-87
2021/12/03 08:17:34;;;;;;;56.87;28.83;;;0.60;99.90;;;;;;4955067;29;20050;-87
2021/12/03 08:19:59;;;;;;;62.83;29.63;;;0.50;99.90;;;;;;4937848;29;20047;-87
2021/12/03 08:22:25;;;;;;;64.53;29.33;;;0.80;99.90;;;;;;4937574;29;20050;-87
2021/12/03 08:25:16;;;;;;;63.57;30.03;;;0.60;99.90;;;;;;4951751;29;20055;-88
2021/12/03 08:27:42;;;;;;;73.93;31.40;;;1.30;99.90;;;;;;4937754;29;20051;-88
2021/12/03 08:30:13;;;;;;;76.43;33.27;;;0.70;99.90;;;;;;4937934;29;20057;-90
2021/12/03 08:32:38;;;;;;;76.73;32.00;;;1.00;99.90;;;;;;4954454;29;20043;-88
2021/12/03 08:35:16;;;;;;;79.73;33.27;;;0.90;99.90;;;;;;4936800;29;20507;-87
2021/12/03 08:37:46;;;;;;;72.73;31.77;;;0.70;99.90;;;;;;4937954;29;20373;-88
2021/12/03 08:40:13;;;;;;;76.37;31.80;;;1.60;99.90;;;;;;4939281;29;20091;-88
2021/12/03 08:42:41;;;;;;;78.57;32.90;;;2.50;99.90;;;;;;4938176;29;20098;-94
2021/12/03 08:45:08;;;;;;;75.63;32.37;;;1.00;99.90;;;;;;4938054;29;20047;-88
2021/12/03 08:47:35;;;;;;;76.63;30.87;;;1.00;99.90;;;;;;4954571;29;20039;-87
2021/12/03 08:50:05;;;;;;;80.70;31.70;;;1.80;99.90;;;;;;4953689;29;20062;-87
2021/12/03 08:52:49;;;;;;;81.90;31.13;;;0.80;99.90;;;;;;4954321;29;20074;-87
2021/12/03 08:55:15;;;;;;;79.88;33.47;;;2.30;99.90;;;;;;4936756;29;20134;-87
2021/12/03 08:57:41;;;;;;;79.00;31.10;;;1.00;99.90;;;;;;4936984;29;20135;-87
2021/12/03 09:00:16;;;;;;;82.77;31.03;;;2.00;99.90;;;;;;4937512;29;20055;-88
2021/12/03 09:02:42;;;;;;;75.53;31.93;;;1.20;99.90;;;;;;4936947;29;20395;-87
2021/12/03 09:05:09;;;;;;;77.27;31.83;;;1.10;99.90;;;;;;4937567;29;20055;-87
2021/12/03 09:07:39;;;;;;;71.03;30.27;;;1.30;99.90;;;;;;4937293;29;20051;-88
2021/12/03 09:10:06;;;;;;;76.10;30.77;;;1.00;99.90;;;;;;4953340;29;20051;-88
2021/12/03 09:12:32;;;;;;;73.90;29.93;;;1.40;99.90;;;;;;4937953;29;20051;-86
2021/12/03 09:15:08;;;;;;;75.17;30.57;;;1.30;99.90;;;;;;4954620;29;20488;-87
2021/12/03 09:22:45;;;;;;;67.23;29.93;;;1.70;99.90;;;;;;4937724;29;20040;-88
2021/12/03 09:25:16;;;;;;;57.50;27.87;;;1.90;99.90;;;;;;4938525;29;20401;-87
2021/12/03 09:27:42;;;;;;;66.17;26.50;;;2.00;99.90;;;;;;4957921;29;20051;-86
2021/12/03 09:30:13;;;;;;;65.23;28.17;;;2.00;99.90;;;;;;4962349;29;20500;-87
2021/12/03 09:32:40;;;;;;;54.80;28.57;;;3.30;99.90;;;;;;4948358;29;20050;-88
2021/12/03 09:35:06;;;;;;;59.27;26.50;;;1.70;99.90;;;;;;4940327;29;20130;-86
2021/12/03 09:37:32;;;;;;;65.73;30.20;;;1.90;99.90;;;;;;4940592;29;20083;-88
2021/12/03 09:40:04;;;;;;;55.63;24.90;;;1.90;99.90;;;;;;4962651;29;20046;-88
2021/12/03 09:42:31;;;;;;;58.60;25.27;;;3.20;99.90;;;;;;4944025;29;20384;-88
2021/12/03 09:44:56;;;;;;;56.97;27.30;;;1.90;99.90;;;;;;4955782;29;20111;-87
2021/12/03 09:47:22;;;;;;;57.10;25.13;;;1.90;99.90;;;;;;4940773;29;20473;-88
2021/12/03 09:49:55;;;;;;;57.20;25.30;;;1.80;99.90;;;;;;4939929;29;20163;-88
2021/12/03 09:52:50;;;;;;;55.20;24.38;;;2.00;99.90;;;;;;4957549;29;20101;-88
2021/12/03 09:55:32;;;;;;;52.57;23.30;;;1.60;99.90;;;;;;4957760;28;20051;-88
2021/12/03 09:58:30;;;;;;;50.57;23.27;;;1.80;99.90;;;;;;4964857;28;20055;-89
2021/12/03 10:01:02;;;;;;;46.47;23.63;;;2.20;99.90;;;;;;4961714;29;20432;-88
2021/12/03 10:03:56;;;;;;;47.80;22.27;;;1.80;99.90;;;;;;4945712;29;20051;-88
2021/12/03 10:12:46;;;;;;;43.13;20.03;;;2.30;99.90;;;;;;4939862;29;20051;-87
2021/12/03 10:15:39;;;;;;;40.90;20.37;;;1.30;99.90;;;;;;4940120;29;20091;-86
2021/12/03 10:18:20;;;;;;;45.23;19.37;;;2.00;99.90;;;;;;4939774;29;20047;-87
2021/12/03 10:20:51;;;;;;;40.37;18.40;;;2.30;99.90;;;;;;4938684;29;20083;-87
2021/12/03 10:34:21;;;;;;;34.27;15.77;;;2.10;99.90;;;;;;4955561;29;20051;-86
2021/12/03 10:42:07;;;;;;;39.80;21.47;;;2.30;99.90;;;;;;4938604;29;20051;-86
2021/12/03 10:44:54;;;;;;;30.57;14.33;;;2.40;99.90;;;;;;4939723;29;20055;-85
2021/12/03 10:53:36;;;;;;;24.97;11.57;;;2.30;99.90;;;;;;4910192;29;20051;-85
2021/12/03 11:29:37;;;;;;;18.50;7.73;;;2.50;99.90;;;;;;4927450;29;19922;-83
2021/12/03 11:52:30;;;;;;;18.00;8.97;;;2.40;99.90;;;;;;4938557;29;20063;-86
2021/12/03 12:35:27;;;;;;;20.52;8.50;;;1.70;99.90;;;;;;4945007;29;20043;-87
2021/12/03 14:54:25;;;;;;;16.17;6.77;;;3.00;99.90;;;;;;4898562;29;20410;-86
2021/12/03 14:57:40;;;;;;;18.90;7.03;;;2.60;99.90;;;;;;4882757;29;20055;-87
2021/12/03 15:00:33;;;;;;;21.30;7.10;;;3.50;99.90;;;;;;4841664;29;20054;-85
2021/12/03 15:03:29;;;;;;;15.20;6.90;;;3.70;99.90;;;;;;4897674;29;20453;-89
2021/12/03 15:11:53;;;;;;;14.43;6.70;;;3.20;99.90;;;;;;4918632;29;20048;-86
2021/12/03 15:28:48;;;;;;;15.77;7.33;;;3.90;99.90;;;;;;4897336;29;20104;-85
2021/12/03 15:31:21;;;;;;;18.38;6.53;;;3.70;99.90;;;;;;4898286;29;20112;-86
2021/12/03 15:36:52;;;;;;;15.37;6.60;;;2.90;99.90;;;;;;4917835;29;20047;-87
2021/12/03 15:39:45;;;;;;;16.35;6.63;;;3.20;99.90;;;;;;4911372;29;20160;-87
2021/12/03 16:03:55;;;;;;;16.40;7.00;;;3.30;99.90;;;;;;4908183;29;20044;-85
2021/12/03 16:06:35;;;;;;;17.57;7.63;;;4.50;99.90;;;;;;4915688;29;20044;-83
2021/12/03 16:09:28;;;;;;;15.30;7.73;;;4.50;99.90;;;;;;4900943;29;20441;-84
2021/12/03 16:14:58;;;;;;;16.97;8.17;;;3.20;99.90;;;;;;4913366;29;20477;-84
2021/12/03 16:26:18;;;;;;;15.97;8.50;;;3.60;99.90;;;;;;4870593;29;20064;-83
2021/12/03 16:53:30;;;;;;;14.77;9.13;;;3.10;99.90;;;;;;4899574;29;20123;-84
2021/12/03 16:58:23;;;;;;;14.70;9.17;;;3.20;99.90;;;;;;4913481;29;20048;-86
2021/12/03 17:00:55;;;;;;;17.47;10.30;;;3.20;99.90;;;;;;4887422;29;20577;-87
2021/12/03 17:03:26;;;;;;;16.50;8.90;;;;;;;;;;4903447;29;20051;-87
2021/12/03 17:08:31;;;;;;;17.70;10.17;;;3.10;99.90;;;;;;4901708;29;20048;-83
2021/12/03 17:11:34;;;;;;;17.23;10.50;;;3.10;99.90;;;;;;4893210;29;20125;-83
2021/12/03 17:14:23;;;;;;;16.27;10.70;;;3.10;99.90;;;;;;4894289;29;20123;-83
2021/12/03 17:17:15;;;;;;;19.87;13.77;;;3.00;99.90;;;;;;4894327;29;20033;-86
2021/12/03 17:44:31;;;;;;;;;;;4.60;99.90;;;;;;4920010;29;20066;-84
2021/12/03 17:49:32;;;;;;;20.30;14.77;;;3.40;99.90;;;;;;4924805;29;20056;-85
2021/12/03 17:59:52;;;;;;;21.73;16.40;;;4.80;99.90;;;;;;4926523;29;19930;-85
2021/12/03 18:02:31;;;;;;;19.93;13.43;;;3.90;99.90;;;;;;4907842;29;20048;-85
2021/12/03 18:05:05;;;;;;;18.17;11.87;;;2.80;99.90;;;;;;4917245;29;20047;-84
2021/12/03 18:51:16;;;;;;;;;;;3.40;99.90;;;;;;4920925;29;20056;-89
2021/12/03 18:56:52;;;;;;;26.50;17.83;;;3.40;99.90;;;;;;4877177;29;20059;-87
2021/12/03 18:59:18;;;;;;;25.67;16.33;;;3.40;99.90;;;;;;4918403;29;20493;-83
2021/12/03 19:01:44;;;;;;;28.63;18.20;;;3.40;99.90;;;;;;4917366;29;20048;-84
2021/12/03 19:06:46;;;;;;;29.00;18.60;;;3.70;99.90;;;;;;4917981;29;20052;-85
2021/12/03 19:09:26;;;;;;;28.73;17.23;;;4.00;99.90;;;;;;4919143;29;20341;-86
2021/12/03 19:12:05;;;;;;;27.87;16.27;;;4.50;99.90;;;;;;4939067;29;20100;-84
2021/12/03 19:14:40;;;;;;;25.10;15.67;;;3.40;99.90;;;;;;4931250;29;20119;-84
2021/12/03 19:17:08;;;;;;;34.53;24.13;;;3.80;99.90;;;;;;4920053;29;20478;-85
2021/12/03 19:19:41;;;;;;;26.67;17.20;;;3.40;99.90;;;;;;4917480;29;20126;-86
2021/12/03 19:22:07;;;;;;;32.17;21.03;;;3.40;99.90;;;;;;4916347;29;20466;-85
2021/12/03 19:24:33;;;;;;;27.23;17.27;;;3.50;99.90;;;;;;4917219;29;20091;-86
2021/12/03 19:26:59;;;;;;;28.77;19.03;;;4.80;99.90;;;;;;4916236;29;20130;-86
2021/12/03 19:29:24;;;;;;;30.50;19.90;;;3.40;99.90;;;;;;4916942;29;20048;-86
2021/12/03 19:31:52;;;;;;;30.40;18.37;;;3.50;99.90;;;;;;4917076;29;20102;-87
2021/12/03 19:34:23;;;;;;;27.20;16.53;;;4.30;99.90;;;;;;4917018;29;20052;-87
2021/12/03 19:36:49;;;;;;;26.30;16.30;;;4.30;99.90;;;;;;4916083;29;20055;-86
2021/12/03 19:39:17;;;;;;;24.63;15.90;;;3.50;99.90;;;;;;4917929;29;20048;-85
2021/12/03 19:41:56;;;;;;;26.27;16.20;;;4.20;99.90;;;;;;4916402;29;20048;-86
2021/12/03 19:44:32;;;;;;;26.13;16.80;;;3.60;99.90;;;;;;4918139;29;20437;-85
2021/12/03 19:46:58;;;;;;;25.70;16.00;;;3.70;99.90;;;;;;4917475;29;20044;-85
2021/12/03 19:49:45;;;;;;;25.73;16.23;;;3.50;99.90;;;;;;4915375;29;20457;-85
2021/12/03 19:52:24;;;;;;;26.63;16.03;;;4.10;99.90;;;;;;4917032;29;20044;-88
2021/12/03 19:54:52;;;;;;;27.00;16.73;;;4.40;99.90;;;;;;4917610;29;20056;-87
2021/12/03 19:57:17;;;;;;;27.53;16.80;;;3.40;99.90;;;;;;4916648;29;20048;-88
2021/12/03 19:59:43;;;;;;;26.63;17.13;;;3.40;99.90;;;;;;4917072;29;20048;-88
2021/12/03 20:02:08;;;;;;;30.37;18.13;;;4.10;99.90;;;;;;4919602;29;20044;-89
2021/12/03 20:04:50;;;;;;;27.37;15.77;;;3.60;99.90;;;;;;4917988;29;20400;-90
2021/12/03 20:07:15;;;;;;;31.80;17.77;;;3.50;99.90;;;;;;4919670;29;20048;-91
2021/12/03 20:09:57;;;;;;;26.40;15.87;;;3.40;99.90;;;;;;4918035;29;20151;-90
2021/12/03 20:12:24;;;;;;;30.07;16.70;;;4.00;99.90;;;;;;4918035;29;20063;-89
2021/12/03 20:14:50;;;;;;;26.37;15.37;;;4.70;99.90;;;;;;4918535;29;20048;-89
2021/12/03 20:20:25;;;;;;;28.17;17.47;;;2.70;99.90;;;;;;4918074;29;20062;-88
2021/12/03 20:23:09;;;;;;;27.97;16.77;;;3.40;99.90;;;;;;4917812;29;20123;-89
2021/12/03 20:28:17;;;;;;;28.47;15.70;;;3.40;99.90;;;;;;4917768;29;20493;-88
2021/12/03 20:38:56;;;;;;;30.03;17.37;;;3.40;99.90;;;;;;4917115;29;20401;-88
2021/12/03 20:41:36;;;;;;;30.33;17.70;;;3.80;99.90;;;;;;4917204;29;20058;-89
2021/12/03 20:50:32;;;;;;;29.80;16.37;;;3.60;99.90;;;;;;4917681;29;20509;-92
2021/12/03 20:52:41;;;;;;;29.87;15.60;;;3.50;99.90;;;;;;4912972;29;20044;-88